PWSweather.com
Personal Weather Stations
Station Observations
KCAOCEAN4
Jeffries Ranch, Oceanside, CA 92057

Jeffries RanchOceanside, CA 92057

Lat: 33.2463208, Lon: -117.25335080000002

Elevation: 207

Station Type: Davis Vantage Vue

jeffriesranchweather.com

High Low Average
Temperature 85.3°F29.6°C 68.2°F20.1°C 74.6°F23.7°C
Dew Point 71.2°F21.8°C 64.6°F18.1°C 67.5°F19.7°C
Winds 8.1 mph 13.0 kmh Calm Calm 2.0 mph WSW3.2 kmh WSW
Wind Gusts 15.0 mph24.1 kmh -- 5.0 mph8.0 kmh
Humidity 91% 62% 79%
Pressure 29.84 in1010.5 mb 29.76 in1007.8 mb -
Precipitation 0.00 in0.0 mm - -
Hour Temp Dew Point Humidity Winds Wind Gusts Pressure Precip Precip Rate Daily Precip Total
12:01 AM 68.4°F20.2°C 64.9°F18.3°C 89% 0.9 mph WNW1.4 kmh WNW 4.0 mph6.4 kmh 29.84 in1010.5 mb 0.00 in0.0 mm 0.00 in0.0 mm 0.00 in0.0 mm
12:11 AM 68.5°F20.3°C 65.1°F18.4°C 89% 0.9 mph WSW1.4 kmh WSW 4.0 mph6.4 kmh 29.83 in1010.2 mb 0.00 in0.0 mm 0.00 in0.0 mm 0.00 in0.0 mm
12:21 AM 68.5°F20.3°C 64.8°F18.2°C 88% 2.0 mph W3.2 kmh W 2.9 mph4.7 kmh 29.83 in1010.2 mb 0.00 in0.0 mm 0.00 in0.0 mm 0.00 in0.0 mm
12:31 AM 68.5°F20.3°C 65.1°F18.4°C 89% 0.9 mph W1.4 kmh W 2.9 mph4.7 kmh 29.83 in1010.2 mb 0.00 in0.0 mm 0.00 in0.0 mm 0.00 in0.0 mm
12:41 AM 68.7°F20.4°C 64.9°F18.3°C 88% 0.9 mph NW1.4 kmh NW 4.0 mph6.4 kmh 29.83 in1010.2 mb 0.00 in0.0 mm 0.00 in0.0 mm 0.00 in0.0 mm
12:51 AM 68.7°F20.4°C 64.9°F18.3°C 88% 2.0 mph WNW3.2 kmh WNW 2.9 mph4.7 kmh 29.83 in1010.2 mb 0.00 in0.0 mm 0.00 in0.0 mm 0.00 in0.0 mm
01:01 AM 68.7°F20.4°C 64.8°F18.2°C 87% 0.9 mph W1.4 kmh W 4.0 mph6.4 kmh 29.83 in1010.2 mb 0.00 in0.0 mm 0.00 in0.0 mm 0.00 in0.0 mm
01:11 AM 68.7°F20.4°C 64.8°F18.2°C 87% 2.0 mph WNW3.2 kmh WNW 5.0 mph8.0 kmh 29.82 in1009.8 mb 0.00 in0.0 mm 0.00 in0.0 mm 0.00 in0.0 mm
01:21 AM 68.7°F20.4°C 64.8°F18.2°C 87% 2.0 mph W3.2 kmh W 6.0 mph9.7 kmh 29.83 in1010.2 mb 0.00 in0.0 mm 0.00 in0.0 mm 0.00 in0.0 mm
01:31 AM 68.7°F20.4°C 64.8°F18.2°C 87% Calm Calm 2.0 mph3.2 kmh 29.83 in1010.2 mb 0.00 in0.0 mm 0.00 in0.0 mm 0.00 in0.0 mm
01:51 AM 68.9°F20.5°C 64.9°F18.3°C 87% Calm Calm 4.9 mph7.9 kmh 29.84 in1010.5 mb 0.00 in0.0 mm 0.00 in0.0 mm 0.00 in0.0 mm
02:01 AM 68.9°F20.5°C 64.9°F18.3°C 87% 2.0 mph WNW3.2 kmh WNW 4.9 mph7.9 kmh 29.83 in1010.2 mb 0.00 in0.0 mm 0.00 in0.0 mm 0.00 in0.0 mm
02:11 AM 68.9°F20.5°C 64.9°F18.3°C 87% 2.9 mph W4.7 kmh W 6.0 mph9.7 kmh 29.82 in1009.8 mb 0.00 in0.0 mm 0.00 in0.0 mm 0.00 in0.0 mm
02:21 AM 68.7°F20.4°C 64.8°F18.2°C 87% 2.0 mph NE3.2 kmh NE 4.9 mph7.9 kmh 29.83 in1010.2 mb 0.00 in0.0 mm 0.00 in0.0 mm 0.00 in0.0 mm
02:31 AM 68.7°F20.4°C 64.9°F18.3°C 88% 0.9 mph NE1.4 kmh NE 2.9 mph4.7 kmh 29.83 in1010.2 mb 0.00 in0.0 mm 0.00 in0.0 mm 0.00 in0.0 mm
02:41 AM 68.5°F20.3°C 64.8°F18.2°C 88% Calm Calm 2.0 mph3.2 kmh 29.82 in1009.8 mb 0.00 in0.0 mm 0.00 in0.0 mm 0.00 in0.0 mm
02:51 AM 68.5°F20.3°C 64.8°F18.2°C 88% 0.9 mph WNW1.4 kmh WNW 2.0 mph3.2 kmh 29.81 in1009.5 mb 0.00 in0.0 mm 0.00 in0.0 mm 0.00 in0.0 mm
03:01 AM 68.5°F20.3°C 64.8°F18.2°C 88% Calm Calm 0.9 mph1.4 kmh 29.82 in1009.8 mb 0.00 in0.0 mm 0.00 in0.0 mm 0.00 in0.0 mm
03:11 AM 68.4°F20.2°C 64.6°F18.1°C 88% 0.9 mph N1.4 kmh N 4.0 mph6.4 kmh 29.82 in1009.8 mb 0.00 in0.0 mm 0.00 in0.0 mm 0.00 in0.0 mm
03:21 AM 68.5°F20.3°C 64.8°F18.2°C 88% 0.9 mph E1.4 kmh E 4.0 mph6.4 kmh 29.83 in1010.2 mb 0.00 in0.0 mm 0.00 in0.0 mm 0.00 in0.0 mm
03:31 AM 68.4°F20.2°C 64.9°F18.3°C 89% Calm Calm 2.9 mph4.7 kmh 29.82 in1009.8 mb 0.00 in0.0 mm 0.00 in0.0 mm 0.00 in0.0 mm
03:41 AM 68.4°F20.2°C 64.9°F18.3°C 89% Calm Calm 2.0 mph3.2 kmh 29.82 in1009.8 mb 0.00 in0.0 mm 0.00 in0.0 mm 0.00 in0.0 mm
03:51 AM 68.4°F20.2°C 64.9°F18.3°C 89% 0.9 mph E1.4 kmh E 3.0 mph4.8 kmh 29.82 in1009.8 mb 0.00 in0.0 mm 0.00 in0.0 mm 0.00 in0.0 mm
04:01 AM 68.4°F20.2°C 64.9°F18.3°C 89% 0.9 mph SE1.4 kmh SE 2.9 mph4.7 kmh 29.81 in1009.5 mb 0.00 in0.0 mm 0.00 in0.0 mm 0.00 in0.0 mm
04:11 AM 68.4°F20.2°C 64.9°F18.3°C 89% Calm Calm 2.0 mph3.2 kmh 29.81 in1009.5 mb 0.00 in0.0 mm 0.00 in0.0 mm 0.00 in0.0 mm
04:21 AM 68.5°F20.3°C 65.1°F18.4°C 89% Calm Calm 0.9 mph1.4 kmh 29.82 in1009.8 mb 0.00 in0.0 mm 0.00 in0.0 mm 0.00 in0.0 mm
04:31 AM 68.5°F20.3°C 65.1°F18.4°C 89% Calm Calm 2.0 mph3.2 kmh 29.82 in1009.8 mb 0.00 in0.0 mm 0.00 in0.0 mm 0.00 in0.0 mm
04:41 AM 68.5°F20.3°C 65.1°F18.4°C 89% 0.9 mph W1.4 kmh W 2.0 mph3.2 kmh 29.81 in1009.5 mb 0.00 in0.0 mm 0.00 in0.0 mm 0.00 in0.0 mm
04:51 AM 68.5°F20.3°C 64.8°F18.2°C 88% 0.9 mph NW1.4 kmh NW 4.0 mph6.4 kmh 29.81 in1009.5 mb 0.00 in0.0 mm 0.00 in0.0 mm 0.00 in0.0 mm
05:01 AM 68.5°F20.3°C 64.8°F18.2°C 88% 0.9 mph SW1.4 kmh SW 2.9 mph4.7 kmh 29.80 in1009.1 mb 0.00 in0.0 mm 0.00 in0.0 mm 0.00 in0.0 mm
05:11 AM 68.2°F20.1°C 64.8°F18.2°C 89% 0.9 mph W1.4 kmh W 2.0 mph3.2 kmh 29.80 in1009.1 mb 0.00 in0.0 mm 0.00 in0.0 mm 0.00 in0.0 mm
05:21 AM 68.2°F20.1°C 64.8°F18.2°C 89% 0.9 mph WSW1.4 kmh WSW 3.0 mph4.8 kmh 29.79 in1008.8 mb 0.00 in0.0 mm 0.00 in0.0 mm 0.00 in0.0 mm
05:31 AM 68.4°F20.2°C 65.3°F18.5°C 90% 0.9 mph NW1.4 kmh NW 2.9 mph4.7 kmh 29.80 in1009.1 mb 0.00 in0.0 mm 0.00 in0.0 mm 0.00 in0.0 mm
05:41 AM 68.5°F20.3°C 65.8°F18.8°C 91% 2.0 mph WNW3.2 kmh WNW 4.0 mph6.4 kmh 29.80 in1009.1 mb 0.00 in0.0 mm 0.00 in0.0 mm 0.00 in0.0 mm
05:51 AM 68.5°F20.3°C 65.8°F18.8°C 91% 0.9 mph W1.4 kmh W 2.0 mph3.2 kmh 29.81 in1009.5 mb 0.00 in0.0 mm 0.00 in0.0 mm 0.00 in0.0 mm
06:01 AM 68.5°F20.3°C 65.8°F18.8°C 91% 0.9 mph WNW1.4 kmh WNW 2.9 mph4.7 kmh 29.82 in1009.8 mb 0.00 in0.0 mm 0.00 in0.0 mm 0.00 in0.0 mm
06:11 AM 68.2°F20.1°C 65.1°F18.4°C 90% 0.9 mph NW1.4 kmh NW 2.9 mph4.7 kmh 29.81 in1009.5 mb 0.00 in0.0 mm 0.00 in0.0 mm 0.00 in0.0 mm
06:21 AM 68.2°F20.1°C 65.5°F18.6°C 91% Calm Calm -- 29.81 in1009.5 mb 0.00 in0.0 mm 0.00 in0.0 mm 0.00 in0.0 mm
06:31 AM 68.4°F20.2°C 65.7°F18.7°C 91% Calm Calm 1.0 mph1.6 kmh 29.81 in1009.5 mb 0.00 in0.0 mm 0.00 in0.0 mm 0.00 in0.0 mm
06:41 AM 68.4°F20.2°C 65.7°F18.7°C 91% Calm Calm 0.9 mph1.4 kmh 29.81 in1009.5 mb 0.00 in0.0 mm 0.00 in0.0 mm 0.00 in0.0 mm
06:51 AM 68.4°F20.2°C 65.7°F18.7°C 91% Calm Calm 0.9 mph1.4 kmh 29.81 in1009.5 mb 0.00 in0.0 mm 0.00 in0.0 mm 0.00 in0.0 mm
07:01 AM 68.5°F20.3°C 65.8°F18.8°C 91% Calm Calm -- 29.81 in1009.5 mb 0.00 in0.0 mm 0.00 in0.0 mm 0.00 in0.0 mm
07:11 AM 68.7°F20.4°C 65.7°F18.7°C 90% 0.9 mph WNW1.4 kmh WNW 2.0 mph3.2 kmh 29.81 in1009.5 mb 0.00 in0.0 mm 0.00 in0.0 mm 0.00 in0.0 mm
07:21 AM 69.1°F20.6°C 66.0°F18.9°C 90% Calm Calm 0.9 mph1.4 kmh 29.82 in1009.8 mb 0.00 in0.0 mm 0.00 in0.0 mm 0.00 in0.0 mm
07:31 AM 69.3°F20.7°C 66.2°F19.0°C 90% Calm Calm 0.9 mph1.4 kmh 29.82 in1009.8 mb 0.00 in0.0 mm 0.00 in0.0 mm 0.00 in0.0 mm
07:41 AM 69.3°F20.7°C 65.8°F18.8°C 89% Calm Calm 2.0 mph3.2 kmh 29.83 in1010.2 mb 0.00 in0.0 mm 0.00 in0.0 mm 0.00 in0.0 mm
07:51 AM 69.4°F20.8°C 65.7°F18.7°C 88% 2.0 mph SE3.2 kmh SE 6.0 mph9.7 kmh 29.83 in1010.2 mb 0.00 in0.0 mm 0.00 in0.0 mm 0.00 in0.0 mm
08:01 AM 69.6°F20.9°C 65.8°F18.8°C 88% 2.0 mph SSW3.2 kmh SSW 4.9 mph7.9 kmh 29.83 in1010.2 mb 0.00 in0.0 mm 0.00 in0.0 mm 0.00 in0.0 mm
08:11 AM 69.6°F20.9°C 65.8°F18.8°C 88% 0.9 mph NW1.4 kmh NW 4.9 mph7.9 kmh 29.83 in1010.2 mb 0.00 in0.0 mm 0.00 in0.0 mm 0.00 in0.0 mm
08:21 AM 70.2°F21.2°C 66.4°F19.1°C 88% 0.9 mph SW1.4 kmh SW 2.9 mph4.7 kmh 29.83 in1010.2 mb 0.00 in0.0 mm 0.00 in0.0 mm 0.00 in0.0 mm
08:31 AM 70.5°F21.4°C 66.4°F19.1°C 87% 0.9 mph ESE1.4 kmh ESE 2.0 mph3.2 kmh 29.83 in1010.2 mb 0.00 in0.0 mm 0.00 in0.0 mm 0.00 in0.0 mm
08:41 AM 71.1°F21.7°C 66.7°F19.3°C 86% Calm Calm 0.9 mph1.4 kmh 29.83 in1010.2 mb 0.00 in0.0 mm 0.00 in0.0 mm 0.00 in0.0 mm
08:51 AM 72.1°F22.3°C 67.1°F19.5°C 84% Calm Calm 0.9 mph1.4 kmh 29.83 in1010.2 mb 0.00 in0.0 mm 0.00 in0.0 mm 0.00 in0.0 mm
09:01 AM 72.1°F22.3°C 66.7°F19.3°C 83% 0.9 mph W1.4 kmh W 4.0 mph6.4 kmh 29.83 in1010.2 mb 0.00 in0.0 mm 0.00 in0.0 mm 0.00 in0.0 mm
09:11 AM 73.6°F23.1°C 68.2°F20.1°C 83% 0.9 mph W1.4 kmh W 2.0 mph3.2 kmh 29.83 in1010.2 mb 0.00 in0.0 mm 0.00 in0.0 mm 0.00 in0.0 mm
09:21 AM 73.9°F23.3°C 68.2°F20.1°C 82% 0.9 mph NNW1.4 kmh NNW 4.0 mph6.4 kmh 29.83 in1010.2 mb 0.00 in0.0 mm 0.00 in0.0 mm 0.00 in0.0 mm
09:31 AM 74.5°F23.6°C 67.8°F19.9°C 80% 0.9 mph NW1.4 kmh NW 5.0 mph8.0 kmh 29.83 in1010.2 mb 0.00 in0.0 mm 0.00 in0.0 mm 0.00 in0.0 mm
09:41 AM 74.7°F23.7°C 68.0°F20.0°C 80% 2.0 mph WNW3.2 kmh WNW 4.9 mph7.9 kmh 29.82 in1009.8 mb 0.00 in0.0 mm 0.00 in0.0 mm 0.00 in0.0 mm
09:51 AM 75.6°F24.2°C 68.2°F20.1°C 78% 0.9 mph WSW1.4 kmh WSW 6.0 mph9.7 kmh 29.82 in1009.8 mb 0.00 in0.0 mm 0.00 in0.0 mm 0.00 in0.0 mm
10:01 AM 75.4°F24.1°C 68.4°F20.2°C 79% 2.0 mph W3.2 kmh W 6.0 mph9.7 kmh 29.82 in1009.8 mb 0.00 in0.0 mm 0.00 in0.0 mm 0.00 in0.0 mm
10:11 AM 75.7°F24.3°C 68.4°F20.2°C 78% 2.0 mph W3.2 kmh W 4.9 mph7.9 kmh 29.82 in1009.8 mb 0.00 in0.0 mm 0.00 in0.0 mm 0.00 in0.0 mm
10:21 AM 76.8°F24.9°C 68.7°F20.4°C 76% 2.0 mph NW3.2 kmh NW 6.0 mph9.7 kmh 29.82 in1009.8 mb 0.00 in0.0 mm 0.00 in0.0 mm 0.00 in0.0 mm
10:31 AM 77.0°F25.0°C 68.9°F20.5°C 76% 2.9 mph E4.7 kmh E 7.0 mph11.3 kmh 29.82 in1009.8 mb 0.00 in0.0 mm 0.00 in0.0 mm 0.00 in0.0 mm
10:41 AM 77.7°F25.4°C 68.7°F20.4°C 74% 2.0 mph NW3.2 kmh NW 4.9 mph7.9 kmh 29.82 in1009.8 mb 0.00 in0.0 mm 0.00 in0.0 mm 0.00 in0.0 mm
10:51 AM 78.6°F25.9°C 69.3°F20.7°C 73% 2.0 mph SW3.2 kmh SW 6.0 mph9.7 kmh 29.82 in1009.8 mb 0.00 in0.0 mm 0.00 in0.0 mm 0.00 in0.0 mm
11:01 AM 78.6°F25.9°C 69.6°F20.9°C 74% 2.9 mph WSW4.7 kmh WSW 6.0 mph9.7 kmh 29.81 in1009.5 mb 0.00 in0.0 mm 0.00 in0.0 mm 0.00 in0.0 mm
11:11 AM 80.1°F26.7°C 69.8°F21.0°C 71% 4.0 mph NNW6.4 kmh NNW 10.1 mph16.3 kmh 29.81 in1009.5 mb 0.00 in0.0 mm 0.00 in0.0 mm 0.00 in0.0 mm
11:21 AM 80.4°F26.9°C 70.2°F21.2°C 71% 4.9 mph WNW7.9 kmh WNW 11.0 mph17.7 kmh 29.80 in1009.1 mb 0.00 in0.0 mm 0.00 in0.0 mm 0.00 in0.0 mm
11:31 AM 80.6°F27.0°C 70.3°F21.3°C 71% 6.0 mph W9.7 kmh W 10.1 mph16.3 kmh 29.80 in1009.1 mb 0.00 in0.0 mm 0.00 in0.0 mm 0.00 in0.0 mm
11:41 AM 80.8°F27.1°C 70.5°F21.4°C 71% 6.0 mph NW9.7 kmh NW 12.1 mph19.5 kmh 29.80 in1009.1 mb 0.00 in0.0 mm 0.00 in0.0 mm 0.00 in0.0 mm
11:51 AM 79.9°F26.6°C 69.6°F20.9°C 71% 6.0 mph WNW9.7 kmh WNW 10.1 mph16.3 kmh 29.80 in1009.1 mb 0.00 in0.0 mm 0.00 in0.0 mm 0.00 in0.0 mm
12:01 PM 80.8°F27.1°C 70.5°F21.4°C 71% 4.0 mph WNW6.4 kmh WNW 8.9 mph14.3 kmh 29.79 in1008.8 mb 0.00 in0.0 mm 0.00 in0.0 mm 0.00 in0.0 mm
12:11 PM 82.4°F28.0°C 71.2°F21.8°C 69% 2.9 mph WNW4.7 kmh WNW 6.9 mph11.1 kmh 29.79 in1008.8 mb 0.00 in0.0 mm 0.00 in0.0 mm 0.00 in0.0 mm
12:21 PM 83.5°F28.6°C 70.5°F21.4°C 65% 2.9 mph NNW4.7 kmh NNW 6.9 mph11.1 kmh 29.78 in1008.5 mb 0.00 in0.0 mm 0.00 in0.0 mm 0.00 in0.0 mm
12:31 PM 84.2°F29.0°C 70.7°F21.5°C 64% 2.9 mph NW4.7 kmh NW 8.1 mph13.0 kmh 29.78 in1008.5 mb 0.00 in0.0 mm 0.00 in0.0 mm 0.00 in0.0 mm
12:41 PM 84.4°F29.1°C 70.9°F21.6°C 64% 4.0 mph NW6.4 kmh NW 10.1 mph16.3 kmh 29.78 in1008.5 mb 0.00 in0.0 mm 0.00 in0.0 mm 0.00 in0.0 mm
12:51 PM 85.3°F29.6°C 70.7°F21.5°C 62% 4.9 mph WNW7.9 kmh WNW 8.9 mph14.3 kmh 29.78 in1008.5 mb 0.00 in0.0 mm 0.00 in0.0 mm 0.00 in0.0 mm
01:01 PM 85.3°F29.6°C 70.7°F21.5°C 62% 6.0 mph WNW9.7 kmh WNW 8.9 mph14.3 kmh 29.77 in1008.1 mb 0.00 in0.0 mm 0.00 in0.0 mm 0.00 in0.0 mm
01:11 PM 84.2°F29.0°C 70.2°F21.2°C 63% 6.9 mph WNW11.1 kmh WNW 13.0 mph20.9 kmh 29.78 in1008.5 mb 0.00 in0.0 mm 0.00 in0.0 mm 0.00 in0.0 mm
01:21 PM 82.9°F28.3°C 70.0°F21.1°C 65% 6.9 mph W11.1 kmh W 15.0 mph24.1 kmh 29.77 in1008.1 mb 0.00 in0.0 mm 0.00 in0.0 mm 0.00 in0.0 mm
01:31 PM 81.9°F27.7°C 69.8°F21.0°C 67% 8.1 mph W13.0 kmh W 14.1 mph22.7 kmh 29.77 in1008.1 mb 0.00 in0.0 mm 0.00 in0.0 mm 0.00 in0.0 mm
01:41 PM 82.4°F28.0°C 70.0°F21.1°C 66% 6.9 mph WNW11.1 kmh WNW 12.1 mph19.5 kmh 29.77 in1008.1 mb 0.00 in0.0 mm 0.00 in0.0 mm 0.00 in0.0 mm
01:51 PM 82.9°F28.3°C 70.3°F21.3°C 66% 6.0 mph WSW9.7 kmh WSW 11.0 mph17.7 kmh 29.77 in1008.1 mb 0.00 in0.0 mm 0.00 in0.0 mm 0.00 in0.0 mm
02:01 PM 83.1°F28.4°C 70.2°F21.2°C 65% 6.0 mph WNW9.7 kmh WNW 13.0 mph20.9 kmh 29.76 in1007.8 mb 0.00 in0.0 mm 0.00 in0.0 mm 0.00 in0.0 mm
02:11 PM 82.9°F28.3°C 70.0°F21.1°C 65% 6.9 mph W11.1 kmh W 12.1 mph19.5 kmh 29.76 in1007.8 mb 0.00 in0.0 mm 0.00 in0.0 mm 0.00 in0.0 mm
02:21 PM 83.5°F28.6°C 70.5°F21.4°C 65% 6.0 mph SW9.7 kmh SW 12.1 mph19.5 kmh 29.77 in1008.1 mb 0.00 in0.0 mm 0.00 in0.0 mm 0.00 in0.0 mm
02:31 PM 82.9°F28.3°C 70.0°F21.1°C 65% 6.0 mph SSW9.7 kmh SSW 13.0 mph20.9 kmh 29.78 in1008.5 mb 0.00 in0.0 mm 0.00 in0.0 mm 0.00 in0.0 mm
02:41 PM 81.9°F27.7°C 69.4°F20.8°C 66% 6.0 mph NW9.7 kmh NW 12.1 mph19.5 kmh 29.78 in1008.5 mb 0.00 in0.0 mm 0.00 in0.0 mm 0.00 in0.0 mm
02:51 PM 80.8°F27.1°C 69.3°F20.7°C 68% 4.0 mph WSW6.4 kmh WSW 8.9 mph14.3 kmh 29.79 in1008.8 mb 0.00 in0.0 mm 0.00 in0.0 mm 0.00 in0.0 mm
03:01 PM 80.6°F27.0°C 69.4°F20.8°C 69% 2.0 mph W3.2 kmh W 6.9 mph11.1 kmh 29.79 in1008.8 mb 0.00 in0.0 mm 0.00 in0.0 mm 0.00 in0.0 mm
03:11 PM 78.6°F25.9°C 69.6°F20.9°C 74% 6.0 mph NW9.7 kmh NW 10.1 mph16.3 kmh 29.77 in1008.1 mb 0.00 in0.0 mm 0.00 in0.0 mm 0.00 in0.0 mm
03:21 PM 77.4°F25.2°C 70.0°F21.1°C 78% 4.9 mph SW7.9 kmh SW 10.1 mph16.3 kmh 29.77 in1008.1 mb 0.00 in0.0 mm 0.00 in0.0 mm 0.00 in0.0 mm
03:31 PM 76.8°F24.9°C 69.1°F20.6°C 77% 4.0 mph SW6.4 kmh SW 8.9 mph14.3 kmh 29.79 in1008.8 mb 0.00 in0.0 mm 0.00 in0.0 mm 0.00 in0.0 mm
03:42 PM 76.6°F24.8°C 69.3°F20.7°C 78% 4.9 mph NW7.9 kmh NW 8.9 mph14.3 kmh 29.78 in1008.5 mb 0.00 in0.0 mm 0.00 in0.0 mm 0.00 in0.0 mm
03:52 PM 76.8°F24.9°C 69.1°F20.6°C 77% 2.9 mph W4.7 kmh W 6.0 mph9.7 kmh 29.77 in1008.1 mb 0.00 in0.0 mm 0.00 in0.0 mm 0.00 in0.0 mm
04:02 PM 78.1°F25.6°C 70.0°F21.1°C 76% 2.9 mph SSW4.7 kmh SSW 7.0 mph11.3 kmh 29.77 in1008.1 mb 0.00 in0.0 mm 0.00 in0.0 mm 0.00 in0.0 mm
04:12 PM 79.0°F26.1°C 70.0°F21.1°C 74% 2.9 mph W4.7 kmh W 6.9 mph11.1 kmh 29.76 in1007.8 mb 0.00 in0.0 mm 0.00 in0.0 mm 0.00 in0.0 mm
04:22 PM 79.9°F26.6°C 70.5°F21.4°C 73% 4.0 mph SW6.4 kmh SW 8.9 mph14.3 kmh 29.76 in1007.8 mb 0.00 in0.0 mm 0.00 in0.0 mm 0.00 in0.0 mm
04:32 PM 79.5°F26.4°C 69.6°F20.9°C 72% 4.0 mph W6.4 kmh W 6.9 mph11.1 kmh 29.77 in1008.1 mb 0.00 in0.0 mm 0.00 in0.0 mm 0.00 in0.0 mm
04:42 PM 80.2°F26.8°C 69.6°F20.9°C 70% 6.0 mph WSW9.7 kmh WSW 10.1 mph16.3 kmh 29.79 in1008.8 mb 0.00 in0.0 mm 0.00 in0.0 mm 0.00 in0.0 mm
04:52 PM 79.5°F26.4°C 69.3°F20.7°C 71% 4.9 mph WSW7.9 kmh WSW 8.9 mph14.3 kmh 29.77 in1008.1 mb 0.00 in0.0 mm 0.00 in0.0 mm 0.00 in0.0 mm
05:02 PM 80.2°F26.8°C 69.6°F20.9°C 70% 2.9 mph NW4.7 kmh NW 6.9 mph11.1 kmh 29.77 in1008.1 mb 0.00 in0.0 mm 0.00 in0.0 mm 0.00 in0.0 mm
05:12 PM 81.3°F27.4°C 69.8°F21.0°C 68% 4.0 mph W6.4 kmh W 8.1 mph13.0 kmh 29.78 in1008.5 mb 0.00 in0.0 mm 0.00 in0.0 mm 0.00 in0.0 mm
05:22 PM 81.7°F27.6°C 69.6°F20.9°C 67% 4.0 mph WSW6.4 kmh WSW 10.1 mph16.3 kmh 29.78 in1008.5 mb 0.00 in0.0 mm 0.00 in0.0 mm 0.00 in0.0 mm
05:32 PM 81.5°F27.5°C 69.4°F20.8°C 67% 4.0 mph SSW6.4 kmh SSW 8.1 mph13.0 kmh 29.77 in1008.1 mb 0.00 in0.0 mm 0.00 in0.0 mm 0.00 in0.0 mm
05:42 PM 80.2°F26.8°C 69.1°F20.6°C 69% 4.9 mph S7.9 kmh S 12.1 mph19.5 kmh 29.77 in1008.1 mb 0.00 in0.0 mm 0.00 in0.0 mm 0.00 in0.0 mm
05:52 PM 78.6°F25.9°C 68.9°F20.5°C 72% 4.0 mph SSW6.4 kmh SSW 8.1 mph13.0 kmh 29.77 in1008.1 mb 0.00 in0.0 mm 0.00 in0.0 mm 0.00 in0.0 mm
06:02 PM 78.4°F25.8°C 68.7°F20.4°C 72% 2.9 mph SW4.7 kmh SW 6.0 mph9.7 kmh 29.78 in1008.5 mb 0.00 in0.0 mm 0.00 in0.0 mm 0.00 in0.0 mm
06:12 PM 79.0°F26.1°C 69.3°F20.7°C 72% 2.0 mph SSW3.2 kmh SSW 4.9 mph7.9 kmh 29.78 in1008.5 mb 0.00 in0.0 mm 0.00 in0.0 mm 0.00 in0.0 mm
06:22 PM 78.3°F25.7°C 68.9°F20.5°C 73% 2.9 mph W4.7 kmh W 6.0 mph9.7 kmh 29.78 in1008.5 mb 0.00 in0.0 mm 0.00 in0.0 mm 0.00 in0.0 mm
06:32 PM 78.3°F25.7°C 69.3°F20.7°C 74% 4.0 mph SW6.4 kmh SW 8.1 mph13.0 kmh 29.78 in1008.5 mb 0.00 in0.0 mm 0.00 in0.0 mm 0.00 in0.0 mm
06:42 PM 77.7°F25.4°C 68.7°F20.4°C 74% 4.0 mph SW6.4 kmh SW 6.9 mph11.1 kmh 29.78 in1008.5 mb 0.00 in0.0 mm 0.00 in0.0 mm 0.00 in0.0 mm
06:52 PM 77.5°F25.3°C 68.5°F20.3°C 74% 2.9 mph W4.7 kmh W 6.9 mph11.1 kmh 29.78 in1008.5 mb 0.00 in0.0 mm 0.00 in0.0 mm 0.00 in0.0 mm
07:02 PM 76.8°F24.9°C 68.4°F20.2°C 75% 2.9 mph WNW4.7 kmh WNW 6.0 mph9.7 kmh 29.78 in1008.5 mb 0.00 in0.0 mm 0.00 in0.0 mm 0.00 in0.0 mm
07:12 PM 77.2°F25.1°C 68.7°F20.4°C 75% 2.9 mph WSW4.7 kmh WSW 4.9 mph7.9 kmh 29.78 in1008.5 mb 0.00 in0.0 mm 0.00 in0.0 mm 0.00 in0.0 mm
07:22 PM 76.8°F24.9°C 67.8°F19.9°C 74% 2.9 mph WSW4.7 kmh WSW 6.0 mph9.7 kmh 29.78 in1008.5 mb 0.00 in0.0 mm 0.00 in0.0 mm 0.00 in0.0 mm
07:32 PM 76.5°F24.7°C 67.6°F19.8°C 74% 2.9 mph WNW4.7 kmh WNW 7.0 mph11.3 kmh 29.78 in1008.5 mb 0.00 in0.0 mm 0.00 in0.0 mm 0.00 in0.0 mm
07:42 PM 75.7°F24.3°C 67.3°F19.6°C 75% 2.9 mph WNW4.7 kmh WNW 6.0 mph9.7 kmh 29.78 in1008.5 mb 0.00 in0.0 mm 0.00 in0.0 mm 0.00 in0.0 mm
07:52 PM 75.6°F24.2°C 67.1°F19.5°C 75% 2.9 mph WNW4.7 kmh WNW 4.9 mph7.9 kmh 29.78 in1008.5 mb 0.00 in0.0 mm 0.00 in0.0 mm 0.00 in0.0 mm
08:02 PM 74.8°F23.8°C 66.7°F19.3°C 76% 2.9 mph W4.7 kmh W 4.9 mph7.9 kmh 29.78 in1008.5 mb 0.00 in0.0 mm 0.00 in0.0 mm 0.00 in0.0 mm
08:12 PM 74.5°F23.6°C 67.1°F19.5°C 78% 2.9 mph NW4.7 kmh NW 6.0 mph9.7 kmh 29.79 in1008.8 mb 0.00 in0.0 mm 0.00 in0.0 mm 0.00 in0.0 mm
08:22 PM 74.1°F23.4°C 66.7°F19.3°C 78% 2.0 mph WNW3.2 kmh WNW 4.0 mph6.4 kmh 29.79 in1008.8 mb 0.00 in0.0 mm 0.00 in0.0 mm 0.00 in0.0 mm
08:32 PM 73.9°F23.3°C 67.1°F19.5°C 79% 2.0 mph WSW3.2 kmh WSW 4.9 mph7.9 kmh 29.79 in1008.8 mb 0.00 in0.0 mm 0.00 in0.0 mm 0.00 in0.0 mm
08:42 PM 73.8°F23.2°C 66.9°F19.4°C 79% 2.0 mph W3.2 kmh W 2.9 mph4.7 kmh 29.79 in1008.8 mb 0.00 in0.0 mm 0.00 in0.0 mm 0.00 in0.0 mm
08:52 PM 73.6°F23.1°C 66.7°F19.3°C 79% 0.9 mph W1.4 kmh W 2.0 mph3.2 kmh 29.80 in1009.1 mb 0.00 in0.0 mm 0.00 in0.0 mm 0.00 in0.0 mm
09:02 PM 73.6°F23.1°C 67.1°F19.5°C 80% Calm Calm 0.9 mph1.4 kmh 29.80 in1009.1 mb 0.00 in0.0 mm 0.00 in0.0 mm 0.00 in0.0 mm
09:12 PM 73.2°F22.9°C 66.7°F19.3°C 80% Calm Calm 0.9 mph1.4 kmh 29.80 in1009.1 mb 0.00 in0.0 mm 0.00 in0.0 mm 0.00 in0.0 mm
09:22 PM 73.2°F22.9°C 66.7°F19.3°C 80% Calm Calm 0.9 mph1.4 kmh 29.81 in1009.5 mb 0.00 in0.0 mm 0.00 in0.0 mm 0.00 in0.0 mm
09:32 PM 73.2°F22.9°C 66.7°F19.3°C 80% Calm Calm 0.9 mph1.4 kmh 29.81 in1009.5 mb 0.00 in0.0 mm 0.00 in0.0 mm 0.00 in0.0 mm
09:42 PM 73.2°F22.9°C 66.7°F19.3°C 80% Calm Calm 0.9 mph1.4 kmh 29.81 in1009.5 mb 0.00 in0.0 mm 0.00 in0.0 mm 0.00 in0.0 mm
09:52 PM 73.4°F23.0°C 66.6°F19.2°C 79% Calm Calm 0.9 mph1.4 kmh 29.81 in1009.5 mb 0.00 in0.0 mm 0.00 in0.0 mm 0.00 in0.0 mm
10:02 PM 73.2°F22.9°C 66.7°F19.3°C 80% Calm Calm 2.0 mph3.2 kmh 29.81 in1009.5 mb 0.00 in0.0 mm 0.00 in0.0 mm 0.00 in0.0 mm
10:12 PM 73.4°F23.0°C 66.9°F19.4°C 80% Calm Calm 2.0 mph3.2 kmh 29.82 in1009.8 mb 0.00 in0.0 mm 0.00 in0.0 mm 0.00 in0.0 mm
10:22 PM 73.4°F23.0°C 67.3°F19.6°C 81% Calm Calm 0.9 mph1.4 kmh 29.81 in1009.5 mb 0.00 in0.0 mm 0.00 in0.0 mm 0.00 in0.0 mm
10:32 PM 73.2°F22.9°C 67.1°F19.5°C 81% Calm Calm 0.9 mph1.4 kmh 29.81 in1009.5 mb 0.00 in0.0 mm 0.00 in0.0 mm 0.00 in0.0 mm
10:42 PM 73.2°F22.9°C 67.1°F19.5°C 81% 0.9 mph NW1.4 kmh NW 3.0 mph4.8 kmh 29.82 in1009.8 mb 0.00 in0.0 mm 0.00 in0.0 mm 0.00 in0.0 mm
10:52 PM 73.2°F22.9°C 67.1°F19.5°C 81% Calm Calm 0.9 mph1.4 kmh 29.83 in1010.2 mb 0.00 in0.0 mm 0.00 in0.0 mm 0.00 in0.0 mm
11:02 PM 73.0°F22.8°C 66.9°F19.4°C 81% Calm Calm 0.9 mph1.4 kmh 29.83 in1010.2 mb 0.00 in0.0 mm 0.00 in0.0 mm 0.00 in0.0 mm
11:12 PM 73.0°F22.8°C 66.9°F19.4°C 81% 0.9 mph W1.4 kmh W 3.0 mph4.8 kmh 29.83 in1010.2 mb 0.00 in0.0 mm 0.00 in0.0 mm 0.00 in0.0 mm
11:22 PM 73.0°F22.8°C 67.3°F19.6°C 82% 0.9 mph W1.4 kmh W 2.9 mph4.7 kmh 29.83 in1010.2 mb 0.00 in0.0 mm 0.00 in0.0 mm 0.00 in0.0 mm
11:32 PM 72.9°F22.7°C 67.5°F19.7°C 83% 0.9 mph WNW1.4 kmh WNW 2.9 mph4.7 kmh 29.83 in1010.2 mb 0.00 in0.0 mm 0.00 in0.0 mm 0.00 in0.0 mm
11:42 PM 72.9°F22.7°C 67.5°F19.7°C 83% 0.9 mph W1.4 kmh W 4.0 mph6.4 kmh 29.84 in1010.5 mb 0.00 in0.0 mm 0.00 in0.0 mm 0.00 in0.0 mm
11:52 PM 72.5°F22.5°C 67.5°F19.7°C 84% 0.9 mph WNW1.4 kmh WNW 2.9 mph4.7 kmh 29.84 in1010.5 mb 0.00 in0.0 mm 0.00 in0.0 mm 0.00 in0.0 mm